»·PEaware :: N506YP KBUR-KIWA

N506YP :: KBUR-KIWA

FLIGHT INFORMATION

Flight Status: Arrived
Operator: Privately registered:
United States
More flights under this callsign
Pilot: Jake F. (16309)
Aircraft: PIPER PA-46-500TP MALIBU MERIDIAN
(P46T)
More flights by this aircraft type
Origin: KBUR Bob Hope-Burbank
United States
Destination: KIWA Williams Gateway
United States
More flights between these airports :: More routes between these airports
Route: VNY3 PMD J65 BLH ARLIN4
File this flight plan on PilotEdge
Remarks:
Altitude:
(Current/Filed)
31,000ft
Speed:
(Current/Filed)
240kts
Departed: 22-Feb-18 10:30 PM
Arrived: 23-Feb-18 12:25 AM
Distance/Time
Traveled:
338nm/1:55
Distance/Time
To Go:
Arrived

Flight Plot

Page will automatically refresh every two minutes.

Flight plan parsing failed; only flown route is shown


Map Options




Map Legend


Flown Route
Filed Route
Departure Airport
Arrival Airport
Navaid (VOR, NDB)
Fix

Horizontal Profiles

Position Reports

Time Latitude Longitude Heading Altitude Ground
Speed
22-Feb-18 22:07 34.196002 -118.367410 180 782ft 0kts
22-Feb-18 22:08 34.196002 -118.367410 180 782ft 0kts
22-Feb-18 22:09 34.196002 -118.367410 180 782ft 0kts
22-Feb-18 22:10 34.196002 -118.367410 180 782ft 0kts
22-Feb-18 22:11 34.196002 -118.367410 180 782ft 0kts
22-Feb-18 22:12 34.196002 -118.367410 180 782ft 0kts
22-Feb-18 22:13 34.196002 -118.367410 180 782ft 0kts
22-Feb-18 22:14 34.196002 -118.367410 180 782ft 0kts
22-Feb-18 22:15 34.196002 -118.367410 180 782ft 0kts
22-Feb-18 22:16 34.196002 -118.367410 180 782ft 0kts
22-Feb-18 22:17 34.196002 -118.367410 180 782ft 0kts
22-Feb-18 22:18 34.196002 -118.367410 180 781ft 0kts
22-Feb-18 22:19 34.196002 -118.367410 180 781ft 0kts
22-Feb-18 22:20 34.196002 -118.367410 180 781ft 0kts
22-Feb-18 22:21 34.196002 -118.367410 180 781ft 0kts
22-Feb-18 22:22 34.196002 -118.367410 180 781ft 0kts
22-Feb-18 22:23 34.196002 -118.367410 180 781ft 0kts
22-Feb-18 22:24 34.196002 -118.367410 180 781ft 0kts
22-Feb-18 22:25 34.195940 -118.367505 260 781ft 0kts
22-Feb-18 22:26 34.195940 -118.367505 260 781ft 0kts
22-Feb-18 22:27 34.195940 -118.367505 260 781ft 0kts
22-Feb-18 22:28 34.195940 -118.367505 260 781ft 0kts
22-Feb-18 22:29 34.195940 -118.367505 260 781ft 0kts
22-Feb-18 22:30 34.195940 -118.367505 260 781ft 0kts
22-Feb-18 22:31 34.195940 -118.367505 260 781ft 0kts
22-Feb-18 22:32 34.195940 -118.367505 260 781ft 0kts
22-Feb-18 22:33 34.195940 -118.367505 260 781ft 0kts
22-Feb-18 22:34 34.196081 -118.368567 285 781ft 12kts
22-Feb-18 22:35 34.197193 -118.368961 358 781ft 0kts
22-Feb-18 22:36 34.197194 -118.368961 358 781ft 0kts
22-Feb-18 22:37 34.197847 -118.363713 91 782ft 72kts
22-Feb-18 22:38 34.186203 -118.342984 236 1750ft 111kts
22-Feb-18 22:39 34.201541 -118.382678 293 2444ft 163kts
22-Feb-18 22:40 34.214002 -118.436725 281 2882ft 153kts
22-Feb-18 22:41 34.222196 -118.486278 276 3988ft 167kts
22-Feb-18 22:42 34.223398 -118.548810 269 3989ft 177kts
22-Feb-18 22:43 34.247882 -118.586135 337 4001ft 145kts
22-Feb-18 22:44 34.275033 -118.599477 337 4010ft 172kts
22-Feb-18 22:46 34.348718 -118.533887 60 4000ft 176kts
22-Feb-18 22:47 34.372209 -118.483518 60 3998ft 167kts
22-Feb-18 22:48 34.398271 -118.436553 53 4000ft 164kts
22-Feb-18 22:49 34.418740 -118.403778 52 4006ft 166kts
22-Feb-18 22:50 34.440254 -118.369658 50 5758ft 107kts
22-Feb-18 22:51 34.459565 -118.338835 52 7043ft 137kts
22-Feb-18 22:52 34.486314 -118.296219 52 8033ft 179kts
22-Feb-18 22:53 34.518312 -118.245081 52 8858ft 196kts
22-Feb-18 22:54 34.551204 -118.192539 52 9808ft 195kts
22-Feb-18 22:55 34.583957 -118.140098 52 10806ft 195kts
22-Feb-18 22:56 34.616944 -118.087150 52 11807ft 197kts
22-Feb-18 22:57 34.619150 -118.024885 107 12820ft 197kts
22-Feb-18 22:58 34.613190 -118.003462 108 13159ft 198kts
22-Feb-18 22:59 34.605063 -117.975414 109 13601ft 199kts
22-Feb-18 23:00 34.592564 -117.933007 109 14269ft 200kts
22-Feb-18 23:01 34.573574 -117.869124 109 15267ft 202kts
22-Feb-18 23:02 34.554265 -117.804432 109 16270ft 204kts
22-Feb-18 23:03 34.534749 -117.739221 109 17242ft 208kts
22-Feb-18 23:04 34.514487 -117.671695 109 18053ft 216kts
22-Feb-18 23:05 34.493694 -117.602574 109 18856ft 220kts
22-Feb-18 23:06 34.472434 -117.532058 109 19659ft 225kts
22-Feb-18 23:07 34.450659 -117.460010 110 20462ft 229kts
22-Feb-18 23:08 34.428586 -117.387149 110 21263ft 231kts
22-Feb-18 23:09 34.406306 -117.313780 110 22061ft 233kts
22-Feb-18 23:10 34.383649 -117.239355 110 22864ft 235kts
22-Feb-18 23:11 34.360912 -117.164857 110 23662ft 236kts
22-Feb-18 23:12 34.338069 -117.090191 110 24460ft 235kts
22-Feb-18 23:13 34.315343 -117.016094 110 25256ft 234kts
22-Feb-18 23:14 34.292674 -116.942363 110 26052ft 233kts
22-Feb-18 23:15 34.270019 -116.868857 110 26850ft 232kts
22-Feb-18 23:16 34.246542 -116.792914 110 27004ft 251kts
22-Feb-18 23:17 34.221640 -116.712635 110 27000ft 256kts
22-Feb-18 23:18 34.196642 -116.632237 110 26999ft 254kts
22-Feb-18 23:19 34.171916 -116.552886 110 26999ft 254kts
22-Feb-18 23:20 34.155737 -116.471177 86 27003ft 253kts
22-Feb-18 23:21 34.144072 -116.388559 114 27002ft 253kts
22-Feb-18 23:22 34.115376 -116.311209 112 27000ft 253kts
22-Feb-18 23:23 34.085349 -116.234335 125 27001ft 253kts
22-Feb-18 23:24 34.052120 -116.160110 108 27000ft 253kts
22-Feb-18 23:25 34.013772 -116.089391 127 27000ft 253kts
22-Feb-18 23:26 33.970814 -116.021708 126 27000ft 254kts
22-Feb-18 23:27 33.934877 -115.950175 96 27002ft 253kts
22-Feb-18 23:28 33.933998 -115.865393 91 27000ft 253kts
22-Feb-18 23:29 33.922498 -115.781449 105 27000ft 254kts
22-Feb-18 23:30 33.900863 -115.700710 109 27000ft 254kts
22-Feb-18 23:31 33.876151 -115.620522 110 27000ft 257kts
22-Feb-18 23:32 33.850357 -115.539683 110 27000ft 259kts
22-Feb-18 23:33 33.824382 -115.459095 111 26999ft 258kts
22-Feb-18 23:34 33.798234 -115.378318 111 27000ft 259kts
22-Feb-18 23:35 33.772052 -115.297684 111 27000ft 259kts
22-Feb-18 23:36 33.745757 -115.216921 111 27000ft 259kts
22-Feb-18 23:37 33.719361 -115.136062 111 27000ft 259kts
22-Feb-18 23:38 33.692992 -115.055494 111 27000ft 259kts
22-Feb-18 23:39 33.666653 -114.975233 111 27070ft 257kts
22-Feb-18 23:40 33.640367 -114.895332 111 27023ft 262kts
22-Feb-18 23:41 33.613061 -114.812614 111 26537ft 270kts
22-Feb-18 23:42 33.590820 -114.728178 104 26106ft 256kts
22-Feb-18 23:43 33.574623 -114.649158 103 25102ft 235kts
22-Feb-18 23:44 33.559939 -114.574644 103 24100ft 226kts
22-Feb-18 23:45 33.546056 -114.503692 103 23602ft 210kts
22-Feb-18 23:46 33.532758 -114.435706 103 23443ft 209kts
22-Feb-18 23:47 33.519102 -114.366140 103 23256ft 223kts
22-Feb-18 23:48 33.504465 -114.291908 103 23067ft 233kts
22-Feb-18 23:49 33.489378 -114.215681 103 22872ft 237kts
22-Feb-18 23:50 33.474055 -114.138534 103 22674ft 238kts
22-Feb-18 23:51 33.458738 -114.061592 103 22598ft 234kts
22-Feb-18 23:52 33.443720 -113.986345 103 22573ft 232kts
22-Feb-18 23:53 33.428515 -113.910495 103 22382ft 235kts
22-Feb-18 23:54 33.413133 -113.834059 103 22184ft 236kts
22-Feb-18 23:55 33.397701 -113.757631 103 21985ft 236kts
22-Feb-18 23:56 33.381998 -113.680117 103 21790ft 243kts
22-Feb-18 23:57 33.365913 -113.601020 103 21594ft 246kts
22-Feb-18 23:58 33.349628 -113.521211 103 21394ft 246kts
22-Feb-18 23:59 33.333373 -113.441820 103 21195ft 246kts
23-Feb-18 00:00 33.317072 -113.362476 103 20995ft 245kts
23-Feb-18 00:01 33.303425 -113.296264 103 20828ft 245kts
23-Feb-18 00:02 33.284448 -113.204523 103 20698ft 241kts
23-Feb-18 00:03 33.273471 -113.125761 91 20560ft 242kts
23-Feb-18 00:04 33.274788 -113.045348 87 20208ft 239kts
23-Feb-18 00:05 33.276572 -112.981497 87 19378ft 225kts
23-Feb-18 00:06 33.278732 -112.895855 88 18203ft 216kts
23-Feb-18 00:07 33.280464 -112.824580 88 17063ft 214kts
23-Feb-18 00:08 33.282145 -112.753880 88 15567ft 212kts
23-Feb-18 00:09 33.283500 -112.695340 88 14314ft 209kts
23-Feb-18 00:10 33.285083 -112.626383 88 12819ft 206kts
23-Feb-18 00:11 33.286590 -112.558529 88 11388ft 194kts
23-Feb-18 00:12 33.287883 -112.498347 88 10069ft 171kts
23-Feb-18 00:13 33.289051 -112.443044 88 8767ft 163kts
23-Feb-18 00:14 33.290196 -112.388109 88 7486ft 167kts
23-Feb-18 00:15 33.291206 -112.339474 88 7248ft 145kts
23-Feb-18 00:16 33.292256 -112.287814 88 6978ft 162kts
23-Feb-18 00:17 33.293327 -112.232709 88 6684ft 167kts
23-Feb-18 00:18 33.294384 -112.177125 88 6385ft 167kts
23-Feb-18 00:19 33.295408 -112.122028 88 6198ft 162kts
23-Feb-18 00:20 33.296410 -112.066807 88 6205ft 176kts
23-Feb-18 00:21 33.331030 -112.028925 25 6165ft 186kts
23-Feb-18 00:22 33.377193 -112.002556 25 5499ft 176kts
23-Feb-18 00:23 33.420389 -111.977554 25 4963ft 163kts
23-Feb-18 00:24 33.437550 -111.933239 80 4949ft 158kts
23-Feb-18 00:25 33.444072 -111.878945 86 5106ft 167kts
23-Feb-18 00:26 33.433630 -111.822360 90 4389ft 169kts
23-Feb-18 00:27 33.406255 -111.776330 135 3506ft 169kts
23-Feb-18 00:28 33.375481 -111.740480 135 2854ft 121kts
23-Feb-18 00:29 33.353046 -111.714199 135 1985ft 108kts
23-Feb-18 00:30 33.331908 -111.689479 135 1679ft 96kts
23-Feb-18 00:31 33.313235 -111.667660 135 1386ft 60kts
23-Feb-18 00:32 33.309103 -111.667096 201 1385ft 12kts
23-Feb-18 00:33 33.307146 -111.668963 178 1385ft 0kts
23-Feb-18 00:34 33.307146 -111.668963 178 1385ft 0kts

Navigation Log

Ident Type
Flight plan parsing failed, navigation log unavailable